Aviation Digital Data Service (ADDS)

Output produced by METARs form (1920 UTC 09 December 2016)
found at http://aviationweather.gov/adds/metars/
 
KILM 091720Z 0918/1018 35010G15KT P6SM SKC 
     FM092300 36005KT P6SM SKC 
     FM101300 36007KT P6SM SKC